createdAt,value
2014-07-15T00:00:06.906Z,2
2014-07-15T00:00:24.500Z,2
2014-07-15T00:00:42.720Z,2
2014-07-15T00:01:00.955Z,2
2014-07-15T00:01:19.174Z,2
2014-07-15T00:01:36.769Z,2
2014-07-15T00:01:54.988Z,2
2014-07-15T00:02:13.222Z,2
2014-07-15T00:02:30.816Z,2
2014-07-15T00:02:48.412Z,2
2014-07-15T00:03:06.631Z,2
2014-07-15T00:03:24.224Z,1
2014-07-15T00:03:42.443Z,2
2014-07-15T00:04:00.164Z,2
2014-07-15T00:04:17.758Z,2
2014-07-15T00:04:35.992Z,2
2014-07-15T00:04:54.213Z,2
2014-07-15T00:05:12.432Z,2
2014-07-15T00:05:30.025Z,2
2014-07-15T00:05:47.762Z,1
2014-07-15T00:06:05.355Z,2
2014-07-15T00:06:23.574Z,2
2014-07-15T00:06:41.168Z,2
2014-07-15T00:06:58.779Z,2
2014-07-15T00:07:16.998Z,2
2014-07-15T00:07:34.592Z,2
2014-07-15T00:07:52.188Z,2
2014-07-15T00:08:10.406Z,2
2014-07-15T00:08:28.625Z,2
2014-07-15T00:08:46.844Z,2
2014-07-15T00:09:04.440Z,2
2014-07-15T00:09:22.674Z,2
2014-07-15T00:09:39.627Z,1
2014-07-15T00:09:57.236Z,2
2014-07-15T00:10:14.832Z,2
2014-07-15T00:10:33.051Z,1
2014-07-15T00:10:50.645Z,2
2014-07-15T00:11:08.865Z,2
2014-07-15T00:11:25.209Z,2
2014-07-15T00:11:43.428Z,2
2014-07-15T00:12:01.647Z,2
2014-07-15T00:12:18.617Z,2
2014-07-15T00:12:36.852Z,2
2014-07-15T00:12:53.805Z,3
2014-07-15T00:13:12.041Z,2
2014-07-15T00:13:30.385Z,2
2014-07-15T00:13:48.619Z,2
2014-07-15T00:14:04.948Z,2
2014-07-15T00:14:23.184Z,2
2014-07-15T00:14:41.403Z,2
2014-07-15T00:14:59.637Z,2
2014-07-15T00:15:17.983Z,2
2014-07-15T00:15:36.217Z,2
2014-07-15T00:15:54.436Z,2
2014-07-15T00:16:12.657Z,2
2014-07-15T00:16:30.891Z,2
2014-07-15T00:16:49.110Z,2
2014-07-15T00:17:06.704Z,2
2014-07-15T00:17:24.924Z,2
2014-07-15T00:17:43.143Z,2
2014-07-15T00:18:00.752Z,2
2014-07-15T00:18:18.346Z,2
2014-07-15T00:18:35.926Z,2
2014-07-15T00:18:54.161Z,2
2014-07-15T00:19:12.379Z,1
2014-07-15T00:19:29.350Z,2
2014-07-15T00:19:46.944Z,1
2014-07-15T00:20:04.538Z,2
2014-07-15T00:20:22.772Z,2
2014-07-15T00:20:40.993Z,2
2014-07-15T00:20:58.587Z,2
2014-07-15T00:21:15.540Z,2
2014-07-15T00:21:32.651Z,2
2014-07-15T00:21:49.620Z,2
2014-07-15T00:22:07.839Z,2
2014-07-15T00:22:25.792Z,2
2014-07-15T00:22:43.387Z,2
2014-07-15T00:23:01.606Z,2
2014-07-15T00:23:19.825Z,2
2014-07-15T00:23:38.046Z,2
2014-07-15T00:23:56.280Z,2
2014-07-15T00:24:13.249Z,2
2014-07-15T00:24:30.843Z,2
2014-07-15T00:24:49.063Z,2
2014-07-15T00:25:06.657Z,2
2014-07-15T00:25:23.141Z,2
2014-07-15T00:25:41.360Z,2
2014-07-15T00:25:58.956Z,2
2014-07-15T00:26:16.550Z,2
2014-07-15T00:26:34.284Z,1
2014-07-15T00:26:51.255Z,2
2014-07-15T00:27:08.364Z,2
2014-07-15T00:27:26.708Z,2
2014-07-15T00:27:44.302Z,2
2014-07-15T00:28:01.913Z,2
2014-07-15T00:28:20.272Z,2
2014-07-15T00:28:38.491Z,2
2014-07-15T00:28:56.087Z,2
2014-07-15T00:29:14.446Z,2
2014-07-15T00:29:32.665Z,2
2014-07-15T00:29:50.259Z,2
2014-07-15T00:30:07.214Z,1
2014-07-15T00:30:24.183Z,2
2014-07-15T00:30:41.776Z,2
2014-07-15T00:30:58.747Z,2
2014-07-15T00:31:16.966Z,2
2014-07-15T00:31:35.185Z,1
2014-07-15T00:31:53.403Z,2
2014-07-15T00:32:11.624Z,2
2014-07-15T00:32:29.843Z,2
2014-07-15T00:32:48.062Z,2
2014-07-15T00:33:06.298Z,2
2014-07-15T00:33:23.876Z,2
2014-07-15T00:33:41.486Z,2
2014-07-15T00:33:59.064Z,2
2014-07-15T00:34:16.034Z,2
2014-07-15T00:34:34.253Z,2
2014-07-15T00:34:52.472Z,2
2014-07-15T00:35:10.068Z,2
2014-07-15T00:35:28.302Z,2
2014-07-15T00:35:45.896Z,2
2014-07-15T00:36:03.490Z,2
2014-07-15T00:36:21.710Z,2
2014-07-15T00:36:39.304Z,2
2014-07-15T00:36:57.523Z,2
2014-07-15T00:37:15.119Z,2
2014-07-15T00:37:32.712Z,2
2014-07-15T00:37:49.681Z,1
2014-07-15T00:38:07.261Z,2
2014-07-15T00:38:24.871Z,2
2014-07-15T00:38:43.089Z,2
2014-07-15T00:39:01.433Z,3
2014-07-15T00:39:18.544Z,2
2014-07-15T00:39:36.763Z,2
2014-07-15T00:39:53.732Z,2
2014-07-15T00:40:11.341Z,2
2014-07-15T00:40:29.562Z,2
2014-07-15T00:40:47.781Z,2
2014-07-15T00:41:05.375Z,2
2014-07-15T00:41:22.345Z,2
2014-07-15T00:41:40.564Z,2
2014-07-15T00:41:58.783Z,2
2014-07-15T00:42:17.142Z,2
2014-07-15T00:42:35.363Z,2
2014-07-15T00:42:53.707Z,2
2014-07-15T00:43:11.316Z,2
2014-07-15T00:43:29.537Z,2
2014-07-15T00:43:47.131Z,2
2014-07-15T00:44:04.724Z,2
2014-07-15T00:44:22.943Z,2
2014-07-15T00:44:41.164Z,2
2014-07-15T00:44:59.383Z,2
2014-07-15T00:45:16.976Z,2
2014-07-15T00:45:35.338Z,2
2014-07-15T00:45:53.556Z,2
2014-07-15T00:46:11.150Z,2
2014-07-15T00:46:28.885Z,2
2014-07-15T00:46:46.480Z,2
2014-07-15T00:47:04.699Z,2
2014-07-15T00:47:21.808Z,2
2014-07-15T00:47:39.404Z,2
2014-07-15T00:47:56.998Z,2
2014-07-15T00:48:15.217Z,2
2014-07-15T00:48:32.935Z,2
2014-07-15T00:48:49.281Z,2
2014-07-15T00:49:06.875Z,2
2014-07-15T00:49:25.094Z,2
2014-07-15T00:49:43.330Z,2
2014-07-15T00:50:01.549Z,2
2014-07-15T00:50:19.143Z,2
2014-07-15T00:50:37.363Z,2
2014-07-15T00:50:54.457Z,2
2014-07-15T00:51:12.051Z,2
2014-07-15T00:51:30.285Z,2
2014-07-15T00:51:47.881Z,2
2014-07-15T00:52:04.850Z,2
2014-07-15T00:52:22.443Z,2
2014-07-15T00:52:40.662Z,2
2014-07-15T00:52:58.899Z,2
2014-07-15T00:53:15.852Z,2
2014-07-15T00:53:32.820Z,2
2014-07-15T00:53:50.432Z,2
2014-07-15T00:54:08.026Z,2
2014-07-15T00:54:25.619Z,2
2014-07-15T00:54:43.213Z,2
2014-07-15T00:55:01.434Z,2
2014-07-15T00:55:19.653Z,2
2014-07-15T00:55:37.246Z,2
2014-07-15T00:55:55.483Z,2
2014-07-15T00:56:13.701Z,2
2014-07-15T00:56:31.920Z,1
2014-07-15T00:56:50.141Z,2
2014-07-15T00:57:06.500Z,1
2014-07-15T00:57:24.719Z,2
2014-07-15T00:57:42.938Z,2
2014-07-15T00:58:00.534Z,2
2014-07-15T00:58:18.768Z,2
2014-07-15T00:58:36.987Z,2
2014-07-15T00:58:55.348Z,2
2014-07-15T00:59:12.942Z,2
2014-07-15T00:59:29.895Z,2
2014-07-15T00:59:48.114Z,2
2014-07-15T01:00:06.366Z,2
2014-07-15T01:00:24.569Z,2
2014-07-15T01:00:42.788Z,2
2014-07-15T01:01:00.383Z,2
2014-07-15T01:01:17.977Z,2
2014-07-15T01:01:35.571Z,2
2014-07-15T01:01:53.790Z,2
2014-07-15T01:02:11.401Z,2
2014-07-15T01:02:29.620Z,2
2014-07-15T01:02:47.213Z,1
2014-07-15T01:03:05.432Z,2
2014-07-15T01:03:23.653Z,2
2014-07-15T01:03:41.887Z,2
2014-07-15T01:03:59.481Z,2
2014-07-15T01:04:17.717Z,2
2014-07-15T01:04:35.936Z,2
2014-07-15T01:04:52.905Z,2
2014-07-15T01:05:10.499Z,2
2014-07-15T01:05:28.719Z,2
2014-07-15T01:05:47.079Z,2
2014-07-15T01:06:04.673Z,2
2014-07-15T01:06:22.268Z,1
2014-07-15T01:06:40.487Z,2
2014-07-15T01:06:58.721Z,2
2014-07-15T01:07:16.317Z,2
2014-07-15T01:07:32.661Z,2
2014-07-15T01:07:50.880Z,2
2014-07-15T01:08:08.473Z,2
2014-07-15T01:08:26.069Z,2
2014-07-15T01:08:44.304Z,2
2014-07-15T01:09:01.897Z,2
2014-07-15T01:09:19.491Z,2
2014-07-15T01:09:36.587Z,2
2014-07-15T01:09:54.196Z,2
2014-07-15T01:10:11.774Z,2
2014-07-15T01:10:29.386Z,2
2014-07-15T01:10:46.354Z,1
2014-07-15T01:11:03.933Z,2
2014-07-15T01:11:21.526Z,1
2014-07-15T01:11:39.764Z,2
2014-07-15T01:11:57.342Z,2
2014-07-15T01:12:15.576Z,2
2014-07-15T01:12:32.529Z,2
2014-07-15T01:12:50.765Z,2
2014-07-15T01:13:08.983Z,2
2014-07-15T01:13:27.218Z,1
2014-07-15T01:13:44.189Z,2
2014-07-15T01:14:01.782Z,2
2014-07-15T01:14:20.001Z,2
2014-07-15T01:14:36.970Z,2
2014-07-15T01:14:54.566Z,2
2014-07-15T01:15:12.784Z,2
2014-07-15T01:15:30.378Z,2
2014-07-15T01:15:48.597Z,2
2014-07-15T01:16:06.818Z,2
2014-07-15T01:16:25.052Z,2
2014-07-15T01:16:43.271Z,2
2014-07-15T01:17:00.882Z,2
2014-07-15T01:17:18.616Z,2
2014-07-15T01:17:36.210Z,2
2014-07-15T01:17:54.429Z,2
2014-07-15T01:18:12.650Z,2
2014-07-15T01:18:30.243Z,2
2014-07-15T01:18:48.462Z,2
2014-07-15T01:19:06.059Z,1
2014-07-15T01:19:24.278Z,2
2014-07-15T01:19:42.637Z,2
2014-07-15T01:20:00.858Z,2
2014-07-15T01:20:19.092Z,2
2014-07-15T01:20:37.311Z,2
2014-07-15T01:20:54.905Z,2
2014-07-15T01:21:13.140Z,2
2014-07-15T01:21:31.359Z,2
2014-07-15T01:21:49.593Z,2
2014-07-15T01:22:07.815Z,2
2014-07-15T01:22:26.034Z,2
2014-07-15T01:22:43.627Z,2
2014-07-15T01:23:01.221Z,2
2014-07-15T01:23:18.192Z,2
2014-07-15T01:23:36.411Z,2
2014-07-15T01:23:54.629Z,2
2014-07-15T01:24:12.865Z,2
2014-07-15T01:24:30.459Z,2
2014-07-15T01:24:47.427Z,2
2014-07-15T01:25:05.646Z,2
2014-07-15T01:25:23.243Z,2
2014-07-15T01:25:40.837Z,2
2014-07-15T01:25:58.430Z,2
2014-07-15T01:26:16.649Z,2
2014-07-15T01:26:34.893Z,2
2014-07-15T01:26:53.112Z,2
2014-07-15T01:27:11.331Z,2
2014-07-15T01:27:29.597Z,2
2014-07-15T01:27:47.190Z,2
2014-07-15T01:28:04.159Z,2
2014-07-15T01:28:22.519Z,2
2014-07-15T01:28:40.155Z,2
2014-07-15T01:28:57.749Z,2
2014-07-15T01:29:15.968Z,2
2014-07-15T01:29:33.607Z,2
2014-07-15T01:29:49.950Z,1
2014-07-15T01:30:08.185Z,1
2014-07-15T01:30:25.778Z,2
2014-07-15T01:30:44.047Z,2
2014-07-15T01:31:01.657Z,2
2014-07-15T01:31:19.250Z,2
2014-07-15T01:31:36.219Z,2
2014-07-15T01:31:54.466Z,2
2014-07-15T01:32:12.685Z,2
2014-07-15T01:32:30.903Z,2
2014-07-15T01:32:49.157Z,2
2014-07-15T01:33:06.750Z,2
2014-07-15T01:33:24.344Z,2
2014-07-15T01:33:42.079Z,2
2014-07-15T01:33:59.687Z,2
2014-07-15T01:34:17.281Z,2
2014-07-15T01:34:34.875Z,2
2014-07-15T01:34:52.002Z,2
2014-07-15T01:35:09.596Z,2
2014-07-15T01:35:26.690Z,2
2014-07-15T01:35:44.908Z,2
2014-07-15T01:36:03.144Z,2
2014-07-15T01:36:20.738Z,2
2014-07-15T01:36:38.332Z,2
2014-07-15T01:36:55.951Z,1
2014-07-15T01:37:14.170Z,2
2014-07-15T01:37:32.389Z,2
2014-07-15T01:37:49.982Z,2
2014-07-15T01:38:07.583Z,2
2014-07-15T01:38:25.802Z,2
2014-07-15T01:38:43.396Z,2
2014-07-15T01:39:01.621Z,2
2014-07-15T01:39:19.215Z,2
2014-07-15T01:39:37.434Z,2
2014-07-15T01:39:55.028Z,2
2014-07-15T01:40:13.270Z,2
2014-07-15T01:40:31.489Z,2
2014-07-15T01:40:49.082Z,2
2014-07-15T01:41:07.307Z,2
2014-07-15T01:41:24.901Z,2
2014-07-15T01:41:43.120Z,2
2014-07-15T01:42:00.713Z,2
2014-07-15T01:42:18.312Z,2
2014-07-15T01:42:35.906Z,2
2014-07-15T01:42:54.125Z,2
2014-07-15T01:43:12.363Z,2
2014-07-15T01:43:30.582Z,2
2014-07-15T01:43:48.816Z,2
2014-07-15T01:44:06.539Z,2
2014-07-15T01:44:24.773Z,2
2014-07-15T01:44:42.492Z,2
2014-07-15T01:45:00.711Z,2
2014-07-15T01:45:18.309Z,2
2014-07-15T01:45:36.543Z,2
2014-07-15T01:45:54.137Z,2
2014-07-15T01:46:12.358Z,2
2014-07-15T01:46:28.702Z,2
2014-07-15T01:46:46.921Z,2
2014-07-15T01:47:04.515Z,2
2014-07-15T01:47:22.737Z,2
2014-07-15T01:47:40.972Z,1
2014-07-15T01:47:59.191Z,2
2014-07-15T01:48:16.162Z,2
2014-07-15T01:48:33.756Z,2
2014-07-15T01:48:51.350Z,1
2014-07-15T01:49:08.928Z,2
2014-07-15T01:49:26.539Z,2
2014-07-15T01:49:44.133Z,2
2014-07-15T01:50:02.352Z,2
2014-07-15T01:50:19.946Z,2
2014-07-15T01:50:38.167Z,2
2014-07-15T01:50:55.761Z,2
2014-07-15T01:51:13.980Z,2
2014-07-15T01:51:32.217Z,2
2014-07-15T01:51:50.436Z,2
2014-07-15T01:52:08.655Z,2
2014-07-15T01:52:25.639Z,2
2014-07-15T01:52:43.860Z,2
2014-07-15T01:53:02.079Z,2
2014-07-15T01:53:20.297Z,2
2014-07-15T01:53:38.535Z,2
2014-07-15T01:53:56.128Z,2
2014-07-15T01:54:13.222Z,2
2014-07-15T01:54:30.816Z,1
2014-07-15T01:54:49.037Z,2
2014-07-15T01:55:07.271Z,2
2014-07-15T01:55:24.865Z,2
2014-07-15T01:55:41.821Z,2
2014-07-15T01:55:59.415Z,2
2014-07-15T01:56:17.774Z,2
2014-07-15T01:56:35.993Z,2
2014-07-15T01:56:53.604Z,2
2014-07-15T01:57:11.823Z,2
2014-07-15T01:57:30.182Z,2
2014-07-15T01:57:47.778Z,2
2014-07-15T01:58:05.372Z,2
2014-07-15T01:58:23.591Z,2
2014-07-15T01:58:41.809Z,2
2014-07-15T01:58:59.405Z,2
2014-07-15T01:59:17.624Z,2
2014-07-15T01:59:35.858Z,2
2014-07-15T01:59:53.438Z,2
2014-07-15T02:00:10.407Z,2
2014-07-15T02:00:28.016Z,2
2014-07-15T02:00:44.985Z,2
2014-07-15T02:01:02.581Z,2
2014-07-15T02:01:20.925Z,2
2014-07-15T02:01:38.518Z,2
2014-07-15T02:01:56.112Z,2
2014-07-15T02:02:13.708Z,2
2014-07-15T02:02:30.677Z,2
2014-07-15T02:02:48.895Z,2
2014-07-15T02:03:06.490Z,2
2014-07-15T02:03:24.100Z,2
2014-07-15T02:03:42.318Z,2
2014-07-15T02:04:00.553Z,2
2014-07-15T02:04:18.773Z,2
2014-07-15T02:04:37.008Z,2
2014-07-15T02:04:54.602Z,2
2014-07-15T02:05:12.822Z,2
2014-07-15T02:05:30.416Z,2
2014-07-15T02:05:48.635Z,2
2014-07-15T02:06:04.979Z,2
2014-07-15T02:06:23.199Z,2
2014-07-15T02:06:40.309Z,2
2014-07-15T02:06:57.277Z,2
2014-07-15T02:07:15.498Z,2
2014-07-15T02:07:33.092Z,2
2014-07-15T02:07:51.311Z,1
2014-07-15T02:08:09.547Z,2
2014-07-15T02:08:27.766Z,2
2014-07-15T02:08:45.985Z,2
2014-07-15T02:09:03.578Z,2
2014-07-15T02:09:21.175Z,2
2014-07-15T02:09:39.409Z,2
2014-07-15T02:09:57.628Z,2
2014-07-15T02:10:15.865Z,2
2014-07-15T02:10:33.458Z,2
2014-07-15T02:10:51.052Z,2
2014-07-15T02:11:08.661Z,2
2014-07-15T02:11:26.867Z,2
2014-07-15T02:11:45.101Z,1
2014-07-15T02:12:03.320Z,2
2014-07-15T02:12:20.914Z,2
2014-07-15T02:12:39.133Z,2
2014-07-15T02:12:57.352Z,2
2014-07-15T02:13:15.586Z,2
2014-07-15T02:13:33.808Z,2
2014-07-15T02:13:52.027Z,2
2014-07-15T02:14:08.996Z,2
2014-07-15T02:14:26.105Z,2
2014-07-15T02:14:44.326Z,2
2014-07-15T02:15:02.544Z,2
2014-07-15T02:15:19.513Z,2
2014-07-15T02:15:37.109Z,2
2014-07-15T02:15:55.343Z,2
2014-07-15T02:16:12.937Z,2
2014-07-15T02:16:31.156Z,2
2014-07-15T02:16:48.877Z,3
2014-07-15T02:17:06.486Z,2
2014-07-15T02:17:24.705Z,2
2014-07-15T02:17:42.441Z,2
2014-07-15T02:18:00.660Z,2
2014-07-15T02:18:17.004Z,2
2014-07-15T02:18:34.597Z,2
2014-07-15T02:18:52.834Z,2
2014-07-15T02:19:10.552Z,2
2014-07-15T02:19:28.771Z,2
2014-07-15T02:19:45.115Z,2
2014-07-15T02:20:02.710Z,2
2014-07-15T02:20:21.069Z,2
2014-07-15T02:20:38.663Z,2
2014-07-15T02:20:56.260Z,2
2014-07-15T02:21:14.478Z,2
2014-07-15T02:21:31.447Z,3
2014-07-15T02:21:49.681Z,2
2014-07-15T02:22:07.902Z,3
2014-07-15T02:22:25.496Z,3
2014-07-15T02:22:43.090Z,3
2014-07-15T02:23:01.310Z,3
2014-07-15T02:23:18.279Z,4
2014-07-15T02:23:35.873Z,3
2014-07-15T02:23:53.468Z,3
2014-07-15T02:24:11.702Z,2
2014-07-15T02:24:29.296Z,3
2014-07-15T02:24:47.515Z,3
2014-07-15T02:25:05.752Z,3
2014-07-15T02:25:22.721Z,3
2014-07-15T02:25:41.080Z,3
2014-07-15T02:25:58.675Z,3
2014-07-15T02:26:15.644Z,3
2014-07-15T02:26:33.862Z,3
2014-07-15T02:26:52.222Z,3
2014-07-15T02:27:09.818Z,3
2014-07-15T02:27:28.037Z,3
2014-07-15T02:27:45.631Z,3
2014-07-15T02:28:03.850Z,3
2014-07-15T02:28:21.445Z,4
2014-07-15T02:28:39.680Z,3
2014-07-15T02:28:57.274Z,3
2014-07-15T02:29:15.494Z,3
2014-07-15T02:29:33.088Z,3
2014-07-15T02:29:51.322Z,4
2014-07-15T02:30:09.542Z,4
2014-07-15T02:30:27.761Z,4
2014-07-15T02:30:46.120Z,4
2014-07-15T02:31:03.089Z,4
2014-07-15T02:31:20.686Z,4
2014-07-15T02:31:38.905Z,5
2014-07-15T02:31:57.123Z,4
2014-07-15T02:32:15.344Z,4
2014-07-15T02:32:32.938Z,4
2014-07-15T02:32:50.532Z,5
2014-07-15T02:33:08.750Z,4
2014-07-15T02:33:26.971Z,5
2014-07-15T02:33:44.565Z,5
2014-07-15T02:34:01.534Z,5
2014-07-15T02:34:19.127Z,4
2014-07-15T02:34:37.348Z,5
2014-07-15T02:34:54.957Z,5
2014-07-15T02:35:12.551Z,4
2014-07-15T02:35:30.772Z,5
2014-07-15T02:35:48.366Z,5
2014-07-15T02:36:05.959Z,5
2014-07-15T02:36:23.553Z,5
2014-07-15T02:36:41.790Z,5
2014-07-15T02:36:59.383Z,5
2014-07-15T02:37:17.602Z,6
2014-07-15T02:37:35.338Z,6
2014-07-15T02:37:53.557Z,6
2014-07-15T02:38:11.776Z,6
2014-07-15T02:38:30.012Z,6
2014-07-15T02:38:48.231Z,6
2014-07-15T02:39:06.450Z,6
2014-07-15T02:39:24.044Z,7
2014-07-15T02:39:42.280Z,6
2014-07-15T02:40:00.499Z,6
2014-07-15T02:40:17.467Z,7
2014-07-15T02:40:35.061Z,7
2014-07-15T02:40:52.657Z,7
2014-07-15T02:41:10.876Z,7
2014-07-15T02:41:28.594Z,7
2014-07-15T02:41:46.190Z,7
2014-07-15T02:42:04.425Z,7
2014-07-15T02:42:22.643Z,8
2014-07-15T02:42:41.005Z,8
2014-07-15T02:42:59.223Z,8
2014-07-15T02:43:17.442Z,8
2014-07-15T02:43:35.661Z,8
2014-07-15T02:43:53.897Z,8
2014-07-15T02:44:10.866Z,8
2014-07-15T02:44:28.460Z,8
2014-07-15T02:44:46.038Z,9
2014-07-15T02:45:04.274Z,9
2014-07-15T02:45:21.868Z,9
2014-07-15T02:45:38.837Z,9
2014-07-15T02:45:56.417Z,9
2014-07-15T02:46:14.651Z,9
2014-07-15T02:46:32.870Z,10
2014-07-15T02:46:49.839Z,10
2014-07-15T02:47:07.560Z,10
2014-07-15T02:47:25.794Z,10
2014-07-15T02:47:44.013Z,11
2014-07-15T02:48:01.624Z,11
2014-07-15T02:48:18.593Z,11
2014-07-15T02:48:35.577Z,11
2014-07-15T02:48:53.171Z,12
2014-07-15T02:49:11.407Z,12
2014-07-15T02:49:29.142Z,12
2014-07-15T02:49:46.110Z,13
2014-07-15T02:50:04.329Z,13
2014-07-15T02:50:20.675Z,13
2014-07-15T02:50:38.269Z,13
2014-07-15T02:50:55.862Z,14
2014-07-15T02:51:14.099Z,14
2014-07-15T02:51:32.318Z,14
2014-07-15T02:51:49.911Z,15
2014-07-15T02:52:07.521Z,15
2014-07-15T02:52:25.741Z,16
2014-07-15T02:52:43.976Z,16
2014-07-15T02:53:00.945Z,16
2014-07-15T02:53:19.165Z,16
2014-07-15T02:53:36.134Z,16
2014-07-15T02:53:54.368Z,17
2014-07-15T02:54:11.962Z,17
2014-07-15T02:54:30.183Z,18
2014-07-15T02:54:47.792Z,18
2014-07-15T02:55:05.386Z,18
2014-07-15T02:55:23.607Z,18
2014-07-15T02:55:41.201Z,19
2014-07-15T02:55:59.435Z,19
2014-07-15T02:56:17.656Z,19
2014-07-15T02:56:35.890Z,20
2014-07-15T02:56:54.109Z,20
2014-07-15T02:57:12.328Z,20
2014-07-15T02:57:30.564Z,21
2014-07-15T02:57:48.783Z,21
2014-07-15T02:58:07.017Z,22
2014-07-15T02:58:23.988Z,22
2014-07-15T02:58:42.207Z,22
2014-07-15T02:58:59.175Z,23
2014-07-15T02:59:16.785Z,23
2014-07-15T02:59:35.005Z,23
2014-07-15T02:59:51.990Z,24
2014-07-15T03:00:08.959Z,24
2014-07-15T03:00:25.927Z,24
2014-07-15T03:00:43.524Z,25
2014-07-15T03:01:01.133Z,26
2014-07-15T03:01:19.352Z,26
2014-07-15T03:01:37.573Z,27
2014-07-15T03:01:55.807Z,27
2014-07-15T03:02:14.026Z,28
2014-07-15T03:02:31.635Z,29
2014-07-15T03:02:49.230Z,30
2014-07-15T03:03:07.449Z,30
2014-07-15T03:03:25.058Z,30
2014-07-15T03:03:43.277Z,30
2014-07-15T03:04:00.873Z,31
2014-07-15T03:04:19.107Z,32
2014-07-15T03:04:36.701Z,32
2014-07-15T03:04:53.672Z,33
2014-07-15T03:05:11.890Z,33
2014-07-15T03:05:29.500Z,34
2014-07-15T03:05:47.719Z,34
2014-07-15T03:06:05.956Z,34
2014-07-15T03:06:23.550Z,35
2014-07-15T03:06:41.784Z,35
2014-07-15T03:06:59.380Z,35
2014-07-15T03:07:17.614Z,36
2014-07-15T03:07:35.208Z,36
2014-07-15T03:07:52.802Z,37
2014-07-15T03:08:10.413Z,37
2014-07-15T03:08:28.632Z,37
2014-07-15T03:08:46.241Z,38
2014-07-15T03:09:04.462Z,38
2014-07-15T03:09:22.056Z,39
2014-07-15T03:09:40.274Z,39
2014-07-15T03:09:58.510Z,39
2014-07-15T03:10:16.729Z,40
2014-07-15T03:10:34.963Z,40
2014-07-15T03:10:53.322Z,40
2014-07-15T03:11:11.044Z,41
2014-07-15T03:11:28.638Z,42
2014-07-15T03:11:46.872Z,42
2014-07-15T03:12:05.107Z,43
2014-07-15T03:12:22.701Z,44
2014-07-15T03:12:40.295Z,44
2014-07-15T03:12:58.514Z,45
2014-07-15T03:13:16.750Z,46
2014-07-15T03:13:34.969Z,46
2014-07-15T03:13:52.703Z,47
2014-07-15T03:14:10.297Z,47
2014-07-15T03:14:28.518Z,49
2014-07-15T03:14:46.752Z,49
2014-07-15T03:15:04.346Z,49
2014-07-15T03:15:21.943Z,50
2014-07-15T03:15:39.552Z,51
2014-07-15T03:15:57.146Z,52
2014-07-15T03:16:15.380Z,53
2014-07-15T03:16:33.601Z,54
2014-07-15T03:16:51.195Z,54
2014-07-15T03:17:08.804Z,55
2014-07-15T03:17:27.025Z,56
2014-07-15T03:17:45.259Z,57
2014-07-15T03:18:03.478Z,57
2014-07-15T03:18:21.073Z,59
2014-07-15T03:18:38.807Z,59
2014-07-15T03:18:57.041Z,60
2014-07-15T03:19:15.276Z,61
2014-07-15T03:19:32.872Z,62
2014-07-15T03:19:50.465Z,62
2014-07-15T03:20:08.059Z,64
2014-07-15T03:20:25.668Z,64
2014-07-15T03:20:43.890Z,65
2014-07-15T03:21:02.125Z,66
2014-07-15T03:21:19.718Z,67
2014-07-15T03:21:37.502Z,68
2014-07-15T03:21:55.673Z,69
2014-07-15T03:22:13.283Z,69
2014-07-15T03:22:30.877Z,71
2014-07-15T03:22:48.487Z,72
2014-07-15T03:23:06.706Z,72
2014-07-15T03:23:24.299Z,73
2014-07-15T03:23:42.536Z,74
2014-07-15T03:23:59.505Z,75
2014-07-15T03:24:17.098Z,76
2014-07-15T03:24:35.333Z,76
2014-07-15T03:24:53.553Z,77
2014-07-15T03:25:11.772Z,77
2014-07-15T03:25:28.116Z,78
2014-07-15T03:25:46.477Z,78
2014-07-15T03:26:04.071Z,79
2014-07-15T03:26:21.665Z,79
2014-07-15T03:26:39.259Z,79
2014-07-15T03:26:57.496Z,79
2014-07-15T03:27:15.715Z,79
2014-07-15T03:27:34.074Z,79
2014-07-15T03:27:52.309Z,79
2014-07-15T03:28:09.903Z,79
2014-07-15T03:28:27.497Z,79
2014-07-15T03:28:44.468Z,80
2014-07-15T03:29:02.827Z,81
2014-07-15T03:29:20.421Z,82
2014-07-15T03:29:38.640Z,84
2014-07-15T03:29:56.877Z,85
2014-07-15T03:30:15.096Z,87
2014-07-15T03:30:33.330Z,89
2014-07-15T03:30:51.550Z,90
2014-07-15T03:31:09.784Z,91
2014-07-15T03:31:28.003Z,93
2014-07-15T03:31:46.237Z,94
2014-07-15T03:32:01.958Z,95
2014-07-15T03:32:20.177Z,97
2014-07-15T03:32:37.771Z,97
2014-07-15T03:32:54.741Z,98
2014-07-15T03:33:12.335Z,99
2014-07-15T03:33:28.819Z,100
2014-07-15T03:33:46.429Z,101
2014-07-15T03:34:04.650Z,101
2014-07-15T03:34:21.618Z,102
2014-07-15T03:34:39.228Z,103
2014-07-15T03:34:57.446Z,104
2014-07-15T03:35:15.683Z,104
2014-07-15T03:35:33.902Z,105
2014-07-15T03:35:51.511Z,105
2014-07-15T03:36:09.747Z,106
2014-07-15T03:36:26.716Z,106
2014-07-15T03:36:44.950Z,105
2014-07-15T03:37:02.060Z,107
2014-07-15T03:37:20.281Z,107
2014-07-15T03:37:38.515Z,108
2014-07-15T03:37:55.484Z,109
2014-07-15T03:38:13.095Z,110
2014-07-15T03:38:31.314Z,111
2014-07-15T03:38:49.548Z,112
2014-07-15T03:39:07.158Z,114
2014-07-15T03:39:24.753Z,115
2014-07-15T03:39:42.988Z,116
2014-07-15T03:40:01.222Z,118
2014-07-15T03:40:18.959Z,119
2014-07-15T03:40:36.553Z,120
2014-07-15T03:40:54.163Z,121
2014-07-15T03:41:11.131Z,122
2014-07-15T03:41:29.368Z,124
2014-07-15T03:41:46.961Z,125
2014-07-15T03:42:04.071Z,127
2014-07-15T03:42:22.305Z,128
2014-07-15T03:42:39.276Z,129
2014-07-15T03:42:57.495Z,131
2014-07-15T03:43:15.870Z,132
2014-07-15T03:43:34.089Z,133
2014-07-15T03:43:51.699Z,134
2014-07-15T03:44:08.668Z,136
2014-07-15T03:44:26.902Z,137
2014-07-15T03:44:45.123Z,138
2014-07-15T03:45:03.357Z,138
2014-07-15T03:45:20.966Z,139
2014-07-15T03:45:38.562Z,139
2014-07-15T03:45:56.781Z,140
2014-07-15T03:46:13.765Z,140
2014-07-15T03:46:31.984Z,141
2014-07-15T03:46:50.220Z,142
2014-07-15T03:47:08.439Z,141
2014-07-15T03:47:25.424Z,142
2014-07-15T03:47:43.644Z,143
2014-07-15T03:48:01.254Z,143
2014-07-15T03:48:18.222Z,144
2014-07-15T03:48:36.441Z,144
2014-07-15T03:48:54.679Z,145
2014-07-15T03:49:12.272Z,145
2014-07-15T03:49:30.007Z,146
2014-07-15T03:49:47.601Z,146
2014-07-15T03:50:05.211Z,147
2014-07-15T03:50:23.430Z,148
2014-07-15T03:50:41.664Z,149
2014-07-15T03:50:58.635Z,149
2014-07-15T03:51:16.244Z,150
2014-07-15T03:51:33.838Z,149
2014-07-15T03:51:51.449Z,151
2014-07-15T03:52:09.043Z,152
2014-07-15T03:52:26.637Z,153
2014-07-15T03:52:44.871Z,154
2014-07-15T03:53:03.107Z,156
2014-07-15T03:53:20.717Z,157
2014-07-15T03:53:38.311Z,157
2014-07-15T03:53:56.547Z,158
2014-07-15T03:54:14.906Z,159
2014-07-15T03:54:31.875Z,160
2014-07-15T03:54:50.094Z,160
2014-07-15T03:55:07.831Z,161
2014-07-15T03:55:25.441Z,162
2014-07-15T03:55:43.034Z,162
2014-07-15T03:56:00.630Z,163
2014-07-15T03:56:18.864Z,163
2014-07-15T03:56:35.849Z,163
2014-07-15T03:56:54.068Z,164
2014-07-15T03:57:11.663Z,165
2014-07-15T03:57:29.898Z,166
2014-07-15T03:57:48.132Z,167
2014-07-15T03:58:05.728Z,167
2014-07-15T03:58:23.962Z,167
2014-07-15T03:58:42.181Z,167
2014-07-15T03:59:00.416Z,169
2014-07-15T03:59:18.010Z,170
2014-07-15T03:59:36.244Z,170
2014-07-15T03:59:53.838Z,171
2014-07-15T04:00:12.075Z,172
2014-07-15T04:00:28.418Z,173
2014-07-15T04:00:46.028Z,172
2014-07-15T04:01:03.623Z,173
2014-07-15T04:01:21.217Z,173
2014-07-15T04:01:39.452Z,174
2014-07-15T04:01:57.686Z,176
2014-07-15T04:02:15.923Z,176
2014-07-15T04:02:33.517Z,177
2014-07-15T04:02:51.736Z,177
2014-07-15T04:03:09.971Z,177
2014-07-15T04:03:27.565Z,177
2014-07-15T04:03:45.159Z,178
2014-07-15T04:04:02.893Z,179
2014-07-15T04:04:19.865Z,179
2014-07-15T04:04:37.459Z,179
2014-07-15T04:04:55.693Z,182
2014-07-15T04:05:13.927Z,182
2014-07-15T04:05:32.148Z,183
2014-07-15T04:05:50.382Z,184
2014-07-15T04:06:08.742Z,186
2014-07-15T04:06:26.337Z,186
2014-07-15T04:06:44.571Z,187
2014-07-15T04:07:02.165Z,189
2014-07-15T04:07:19.774Z,191
2014-07-15T04:07:37.996Z,192
2014-07-15T04:07:56.230Z,193
2014-07-15T04:08:14.465Z,194
2014-07-15T04:08:32.059Z,195
2014-07-15T04:08:50.294Z,196
2014-07-15T04:09:07.887Z,194
2014-07-15T04:09:26.122Z,198
2014-07-15T04:09:44.358Z,197
2014-07-15T04:10:01.952Z,197
2014-07-15T04:10:19.546Z,197
2014-07-15T04:10:37.157Z,197
2014-07-15T04:10:55.376Z,197
2014-07-15T04:11:13.610Z,198
2014-07-15T04:11:31.204Z,198
2014-07-15T04:11:49.440Z,196
2014-07-15T04:12:07.050Z,198
2014-07-15T04:12:24.643Z,199
2014-07-15T04:12:42.880Z,199
2014-07-15T04:13:01.114Z,201
2014-07-15T04:13:18.083Z,203
2014-07-15T04:13:36.302Z,205
2014-07-15T04:13:53.914Z,206
2014-07-15T04:14:12.148Z,208
2014-07-15T04:14:30.383Z,210
2014-07-15T04:14:48.604Z,214
2014-07-15T04:15:06.838Z,218
2014-07-15T04:15:25.057Z,220
2014-07-15T04:15:42.667Z,224
2014-07-15T04:16:01.026Z,227
2014-07-15T04:16:18.620Z,230
2014-07-15T04:16:35.605Z,233
2014-07-15T04:16:53.200Z,233
2014-07-15T04:17:10.810Z,238
2014-07-15T04:17:28.403Z,240
2014-07-15T04:17:46.638Z,243
2014-07-15T04:18:04.859Z,245
2014-07-15T04:18:22.468Z,246
2014-07-15T04:18:40.062Z,249